createdAt,value
2023-09-13T00:02:26.770Z,7.85
2023-09-13T00:04:55.902Z,7.60
2023-09-13T00:07:23.197Z,6.53
2023-09-13T00:09:50.311Z,6.85
2023-09-13T00:12:17.401Z,6.22
2023-09-13T00:14:44.414Z,6.03
2023-09-13T00:17:11.480Z,5.63
2023-09-13T00:19:38.998Z,5.60
2023-09-13T00:22:06.495Z,6.07
2023-09-13T00:24:33.610Z,5.38
2023-09-13T00:27:00.640Z,5.78
2023-09-13T00:29:31.410Z,5.03
2023-09-13T00:31:58.708Z,5.18
2023-09-13T00:34:25.946Z,5.43
2023-09-13T00:36:53.177Z,5.15
2023-09-13T00:39:20.334Z,5.18
2023-09-13T00:41:47.503Z,4.70
2023-09-13T00:44:14.751Z,5.25
2023-09-13T00:46:43.226Z,4.97
2023-09-13T00:49:11.055Z,5.03
2023-09-13T00:51:38.361Z,4.60
2023-09-13T00:54:06.234Z,4.50
2023-09-13T00:56:34.280Z,4.53
2023-09-13T00:59:03.252Z,5.30
2023-09-13T01:01:31.453Z,4.57
2023-09-13T01:03:59.504Z,4.63
2023-09-13T01:06:26.940Z,4.63
2023-09-13T01:08:54.968Z,4.97
2023-09-13T01:11:22.227Z,4.50
2023-09-13T01:13:49.380Z,4.50
2023-09-13T01:16:29.230Z,4.25
2023-09-13T01:19:40.672Z,4.82
2023-09-13T01:22:34.934Z,3.88
2023-09-13T01:25:10.991Z,4.03
2023-09-13T01:28:25.397Z,3.95
2023-09-13T01:30:53.042Z,3.95
2023-09-13T01:33:20.382Z,4.40
2023-09-13T01:35:47.621Z,3.40
2023-09-13T01:38:14.742Z,3.60
2023-09-13T01:40:44.545Z,3.75
2023-09-13T01:43:13.219Z,3.42
2023-09-13T01:45:40.934Z,3.70
2023-09-13T01:48:10.878Z,3.65
2023-09-13T01:50:39.749Z,3.20
2023-09-13T01:53:06.918Z,3.17
2023-09-13T01:55:37.138Z,2.92
2023-09-13T01:58:04.535Z,3.30
2023-09-13T02:00:31.980Z,3.42
2023-09-13T02:02:59.192Z,3.63
2023-09-13T02:05:27.033Z,3.30
2023-09-13T02:07:54.213Z,3.15
2023-09-13T02:10:21.424Z,3.50
2023-09-13T02:12:48.788Z,3.20
2023-09-13T02:15:16.012Z,3.40
2023-09-13T02:17:43.155Z,3.17
2023-09-13T02:20:13.462Z,3.20
2023-09-13T02:22:40.618Z,3.53
2023-09-13T02:25:08.649Z,3.00
2023-09-13T02:27:35.824Z,3.40
2023-09-13T02:30:07.187Z,2.83
2023-09-13T02:32:34.910Z,3.00
2023-09-13T02:35:02.519Z,2.67
2023-09-13T02:37:29.980Z,2.92
2023-09-13T02:39:59.317Z,2.90
2023-09-13T02:42:28.164Z,2.65
2023-09-13T02:44:55.614Z,2.83
2023-09-13T02:47:22.904Z,2.83
2023-09-13T02:49:52.410Z,2.53
2023-09-13T02:52:31.955Z,2.63
2023-09-13T02:55:01.930Z,2.58
2023-09-13T02:57:29.243Z,2.55
2023-09-13T02:59:56.363Z,2.63
2023-09-13T03:02:23.630Z,2.60
2023-09-13T03:04:54.921Z,2.83
2023-09-13T03:07:24.018Z,2.95
2023-09-13T03:09:58.740Z,2.47
2023-09-13T03:12:26.911Z,2.85
2023-09-13T03:14:57.377Z,2.60
2023-09-13T03:17:24.837Z,2.67
2023-09-13T03:19:52.166Z,2.65
2023-09-13T03:22:20.767Z,2.50
2023-09-13T03:24:48.252Z,2.45
2023-09-13T03:27:16.377Z,2.70
2023-09-13T03:29:43.547Z,2.67
2023-09-13T03:32:11.504Z,2.45
2023-09-13T03:34:39.093Z,2.40
2023-09-13T03:37:07.745Z,2.50
2023-09-13T03:39:35.630Z,2.47
2023-09-13T03:42:03.916Z,2.53
2023-09-13T03:44:31.140Z,2.60
2023-09-13T03:46:58.456Z,2.50
2023-09-13T03:49:25.836Z,2.70
2023-09-13T03:51:53.183Z,2.30
2023-09-13T03:54:20.938Z,2.63
2023-09-13T03:56:48.388Z,2.40
2023-09-13T03:59:15.554Z,2.80
2023-09-13T04:01:42.835Z,2.63
2023-09-13T04:04:10.126Z,2.35
2023-09-13T04:06:37.485Z,2.85
2023-09-13T04:09:04.820Z,2.80
2023-09-13T04:11:32.014Z,2.67
2023-09-13T04:13:59.101Z,2.80
2023-09-13T04:16:26.283Z,2.47
2023-09-13T04:18:53.345Z,2.67
2023-09-13T04:21:22.226Z,2.75
2023-09-13T04:23:49.383Z,2.80
2023-09-13T04:26:22.625Z,3.05
2023-09-13T04:28:49.869Z,2.78
2023-09-13T04:31:17.691Z,2.90
2023-09-13T04:33:55.062Z,3.25
2023-09-13T04:36:26.499Z,2.92
2023-09-13T04:38:57.082Z,2.95
2023-09-13T04:41:24.630Z,3.03
2023-09-13T04:43:52.067Z,2.78
2023-09-13T04:46:20.639Z,2.97
2023-09-13T04:48:47.951Z,3.40
2023-09-13T04:51:15.100Z,3.05
2023-09-13T04:53:42.566Z,2.92
2023-09-13T04:56:10.133Z,2.50
2023-09-13T04:58:43.873Z,3.13
2023-09-13T05:01:11.422Z,3.08
2023-09-13T05:03:38.764Z,3.03
2023-09-13T05:06:08.652Z,3.15
2023-09-13T05:08:37.805Z,2.78
2023-09-13T05:11:05.016Z,2.90
2023-09-13T05:13:35.296Z,2.65
2023-09-13T05:16:02.505Z,2.80
2023-09-13T05:18:29.674Z,2.53
2023-09-13T05:20:56.851Z,3.17
2023-09-13T05:23:24.073Z,2.60
2023-09-13T05:25:51.451Z,2.60
2023-09-13T05:28:18.549Z,2.85
2023-09-13T05:30:50.369Z,2.88
2023-09-13T05:33:17.600Z,2.17
2023-09-13T05:35:44.800Z,2.40
2023-09-13T05:38:11.874Z,2.50
2023-09-13T05:40:39.004Z,2.30
2023-09-13T05:43:06.303Z,2.85
2023-09-13T05:45:33.436Z,2.20
2023-09-13T05:48:01.255Z,2.30
2023-09-13T05:50:28.380Z,2.70
2023-09-13T05:52:56.252Z,2.33
2023-09-13T05:55:23.658Z,2.15
2023-09-13T05:57:52.313Z,2.10
2023-09-13T06:00:20.265Z,2.17
2023-09-13T06:02:47.452Z,1.88
2023-09-13T06:05:14.562Z,1.70
2023-09-13T06:07:41.600Z,1.67
2023-09-13T06:10:09.294Z,1.70
2023-09-13T06:12:36.465Z,1.80
2023-09-13T06:15:03.804Z,1.55
2023-09-13T06:17:30.961Z,2.17
2023-09-13T06:19:58.649Z,1.73
2023-09-13T06:22:25.814Z,1.90
2023-09-13T06:24:52.991Z,2.15
2023-09-13T06:27:20.230Z,2.05
2023-09-13T06:29:47.973Z,2.22
2023-09-13T06:32:33.736Z,2.00
2023-09-13T06:35:02.346Z,2.22
2023-09-13T06:37:30.616Z,2.17
2023-09-13T06:39:58.307Z,2.17
2023-09-13T06:42:28.955Z,1.85
2023-09-13T06:45:17.798Z,2.10
2023-09-13T06:47:44.911Z,2.00
2023-09-13T06:50:15.110Z,2.35
2023-09-13T06:53:00.592Z,1.80
2023-09-13T06:55:35.118Z,1.88
2023-09-13T06:58:10.801Z,2.20
2023-09-13T07:00:57.476Z,2.33
2023-09-13T07:03:41.112Z,1.98
2023-09-13T07:06:15.327Z,2.80
2023-09-13T07:08:42.879Z,2.78
2023-09-13T07:11:10.430Z,2.70
2023-09-13T07:13:37.597Z,2.83
2023-09-13T07:16:04.978Z,2.97
2023-09-13T07:18:32.076Z,3.33
2023-09-13T07:20:59.364Z,3.28
2023-09-13T07:23:27.728Z,2.90
2023-09-13T07:25:54.844Z,3.53
2023-09-13T07:28:22.029Z,3.00
2023-09-13T07:30:49.137Z,2.65
2023-09-13T07:33:16.292Z,3.08
2023-09-13T07:35:43.366Z,3.22
2023-09-13T07:38:11.623Z,3.17
2023-09-13T07:40:41.915Z,3.17
2023-09-13T07:43:09.521Z,3.38
2023-09-13T07:45:36.740Z,3.40
2023-09-13T07:48:04.385Z,3.15
2023-09-13T07:50:41.782Z,3.40
2023-09-13T07:53:13.783Z,3.65
2023-09-13T07:55:41.870Z,3.28
2023-09-13T07:58:10.093Z,3.22
2023-09-13T08:00:37.524Z,3.53
2023-09-13T08:03:05.777Z,3.10
2023-09-13T08:05:33.215Z,3.50
2023-09-13T08:08:00.818Z,3.50
2023-09-13T08:10:28.071Z,3.30
2023-09-13T08:12:55.724Z,3.22
2023-09-13T08:15:30.857Z,3.50
2023-09-13T08:18:05.980Z,3.28
2023-09-13T08:20:33.167Z,3.72
2023-09-13T08:23:00.424Z,3.30
2023-09-13T08:25:28.340Z,3.53
2023-09-13T08:27:55.711Z,3.03
2023-09-13T08:30:22.785Z,3.13
2023-09-13T08:32:50.602Z,3.03
2023-09-13T08:35:17.864Z,3.47
2023-09-13T08:37:45.095Z,3.30
2023-09-13T08:40:12.930Z,3.60
2023-09-13T08:42:44.580Z,3.22
2023-09-13T08:45:13.933Z,3.47
2023-09-13T08:47:57.149Z,3.10
2023-09-13T08:50:29.729Z,3.28
2023-09-13T08:53:02.351Z,3.17
2023-09-13T08:55:32.401Z,2.80
2023-09-13T08:58:01.219Z,3.20
2023-09-13T09:00:33.089Z,2.60
2023-09-13T09:03:04.115Z,2.58
2023-09-13T09:05:33.242Z,2.47
2023-09-13T09:08:02.674Z,2.85
2023-09-13T09:10:31.813Z,3.08
2023-09-13T09:13:01.052Z,2.55
2023-09-13T09:15:29.200Z,2.25
2023-09-13T09:18:01.052Z,2.05
2023-09-13T09:20:29.469Z,2.10
2023-09-13T09:23:00.002Z,2.50
2023-09-13T09:25:30.085Z,2.30
2023-09-13T09:27:57.138Z,1.92
2023-09-13T09:30:35.709Z,2.28
2023-09-13T09:33:05.723Z,1.90
2023-09-13T09:35:35.977Z,1.90
2023-09-13T09:38:08.094Z,2.42
2023-09-13T09:40:39.443Z,2.42
2023-09-13T09:43:06.802Z,2.20
2023-09-13T09:45:33.941Z,1.92
2023-09-13T09:48:01.930Z,2.20
2023-09-13T09:50:32.910Z,2.30
2023-09-13T09:53:01.084Z,2.58
2023-09-13T09:55:28.630Z,2.72
2023-09-13T09:57:57.289Z,2.45
2023-09-13T10:00:24.531Z,2.30
2023-09-13T10:02:51.954Z,2.40
2023-09-13T10:05:20.043Z,2.30
2023-09-13T10:07:55.879Z,2.20
2023-09-13T10:10:39.542Z,2.72
2023-09-13T10:13:07.427Z,2.40
2023-09-13T10:15:34.754Z,2.20
2023-09-13T10:18:04.379Z,2.00
2023-09-13T10:20:36.182Z,2.40
2023-09-13T10:23:10.571Z,2.50
2023-09-13T10:25:39.167Z,2.50
2023-09-13T10:28:08.674Z,2.10
2023-09-13T10:30:37.359Z,1.92
2023-09-13T10:33:07.899Z,1.85
2023-09-13T10:35:41.640Z,1.90
2023-09-13T10:38:19.138Z,2.17
2023-09-13T10:41:00.849Z,2.40
2023-09-13T10:43:28.846Z,2.30
2023-09-13T10:45:56.670Z,2.58
2023-09-13T10:48:24.751Z,2.60
2023-09-13T10:50:53.166Z,2.65
2023-09-13T10:53:21.392Z,2.25
2023-09-13T10:55:50.553Z,2.33
2023-09-13T10:58:22.186Z,2.67
2023-09-13T11:00:51.891Z,2.85
2023-09-13T11:03:19.865Z,2.47
2023-09-13T11:05:52.232Z,2.40
2023-09-13T11:08:46.284Z,2.13
2023-09-13T11:11:19.086Z,2.85
2023-09-13T11:13:48.488Z,2.70
2023-09-13T11:16:18.004Z,2.83
2023-09-13T11:18:54.171Z,2.33
2023-09-13T11:21:30.182Z,2.55
2023-09-13T11:24:04.179Z,2.47
2023-09-13T11:26:51.136Z,2.90
2023-09-13T11:29:24.346Z,2.50
2023-09-13T11:32:06.049Z,2.72
2023-09-13T11:34:40.467Z,2.88
2023-09-13T11:37:09.250Z,2.60
2023-09-13T11:39:36.395Z,2.60
2023-09-13T11:42:06.920Z,2.30
2023-09-13T11:44:34.576Z,2.70
2023-09-13T11:47:03.304Z,2.85
2023-09-13T11:49:37.168Z,2.88
2023-09-13T11:52:25.128Z,2.58
2023-09-13T12:00:25.536Z,2.35
2023-09-13T12:02:55.099Z,2.53
2023-09-13T12:05:35.986Z,2.17
2023-09-13T12:08:26.747Z,2.40
2023-09-13T12:11:00.608Z,2.20
2023-09-13T12:14:06.881Z,2.33
2023-09-13T12:16:40.887Z,2.10
2023-09-13T12:19:10.165Z,2.05
2023-09-13T12:21:37.446Z,2.08
2023-09-13T12:24:04.851Z,1.83
2023-09-13T12:26:33.121Z,2.17
2023-09-13T12:29:00.358Z,1.92
2023-09-13T12:31:27.588Z,1.80
2023-09-13T12:33:55.192Z,1.92
2023-09-13T12:36:22.692Z,1.70
2023-09-13T12:38:50.726Z,2.20
2023-09-13T12:41:29.560Z,1.45
2023-09-13T12:43:58.089Z,2.10
2023-09-13T12:46:28.474Z,2.08
2023-09-13T12:48:58.187Z,1.83
2023-09-13T12:51:29.782Z,1.95
2023-09-13T12:53:57.968Z,1.88
2023-09-13T12:56:25.109Z,1.80
2023-09-13T12:58:57.122Z,1.70
2023-09-13T13:01:25.459Z,1.65
2023-09-13T13:04:12.477Z,1.52
2023-09-13T13:07:00.808Z,1.70
2023-09-13T13:09:28.324Z,2.03
2023-09-13T13:11:56.756Z,1.77
2023-09-13T13:14:25.140Z,2.00
2023-09-13T13:16:57.633Z,1.73
2023-09-13T13:22:11.943Z,1.90
2023-09-13T13:24:40.757Z,1.75
2023-09-13T13:27:08.406Z,1.77
2023-09-13T13:29:37.020Z,1.83
2023-09-13T13:32:05.432Z,1.50
2023-09-13T13:34:32.812Z,1.60
2023-09-13T13:36:59.901Z,1.90
2023-09-13T13:39:28.159Z,1.80
2023-09-13T13:41:55.559Z,1.55
2023-09-13T13:44:22.988Z,1.40
2023-09-13T13:46:50.664Z,1.80
2023-09-13T13:49:19.433Z,1.77
2023-09-13T13:51:50.815Z,1.77
2023-09-13T13:54:19.485Z,2.10
2023-09-13T13:56:47.543Z,1.88
2023-09-13T13:59:15.945Z,2.15
2023-09-13T14:01:44.734Z,1.65
2023-09-13T14:04:12.256Z,2.00
2023-09-13T14:06:46.027Z,1.95
2023-09-13T14:09:16.993Z,2.03
2023-09-13T14:11:44.246Z,1.98
2023-09-13T14:14:14.429Z,2.22
2023-09-13T14:16:41.917Z,2.42
2023-09-13T14:19:09.425Z,2.10
2023-09-13T14:21:36.826Z,1.92
2023-09-13T14:24:05.866Z,2.20
2023-09-13T14:26:33.322Z,2.47
2023-09-13T14:29:00.665Z,2.15
2023-09-13T14:31:27.758Z,2.20
2023-09-13T14:33:57.020Z,2.13
2023-09-13T14:36:24.407Z,1.95
2023-09-13T14:38:52.543Z,2.00
2023-09-13T14:41:19.651Z,2.00
2023-09-13T14:43:46.972Z,2.00
2023-09-13T14:46:14.455Z,2.33
2023-09-13T14:48:41.749Z,2.30
2023-09-13T14:51:09.056Z,2.22
2023-09-13T14:53:37.400Z,2.33
2023-09-13T14:56:04.605Z,1.90
2023-09-13T14:58:31.578Z,2.00
2023-09-13T15:00:58.740Z,2.53
2023-09-13T15:03:26.178Z,1.95
2023-09-13T15:05:53.459Z,1.90
2023-09-13T15:08:20.527Z,2.38
2023-09-13T15:10:47.848Z,2.00
2023-09-13T15:13:14.895Z,2.03
2023-09-13T15:15:46.309Z,1.98
2023-09-13T15:18:13.778Z,2.05
2023-09-13T15:20:41.030Z,2.33
2023-09-13T15:23:08.105Z,2.30
2023-09-13T15:25:36.068Z,2.22
2023-09-13T15:28:04.002Z,2.00
2023-09-13T15:30:31.114Z,2.00
2023-09-13T15:32:58.383Z,2.20
2023-09-13T15:35:25.605Z,2.22
2023-09-13T15:37:52.766Z,2.22
2023-09-13T15:40:19.901Z,2.00
2023-09-13T15:42:47.592Z,1.85
2023-09-13T15:45:15.052Z,3.08
2023-09-13T15:47:42.368Z,1.85
2023-09-13T15:50:10.242Z,2.22
2023-09-13T15:52:37.350Z,1.73
2023-09-13T15:55:04.938Z,2.28
2023-09-13T15:57:32.188Z,2.50
2023-09-13T15:59:59.749Z,2.00
2023-09-13T16:02:26.792Z,2.03
2023-09-13T16:04:53.955Z,2.40
2023-09-13T16:07:22.470Z,2.03
2023-09-13T16:09:49.568Z,2.28
2023-09-13T16:12:16.638Z,1.95
2023-09-13T16:14:43.787Z,1.83
2023-09-13T16:17:10.783Z,2.00
2023-09-13T16:19:37.956Z,2.00
2023-09-13T16:22:05.783Z,2.22
2023-09-13T16:24:32.993Z,2.10
2023-09-13T16:27:00.291Z,2.38
2023-09-13T16:29:27.845Z,2.00
2023-09-13T16:31:55.078Z,1.92
2023-09-13T16:34:22.553Z,1.98
2023-09-13T16:36:50.005Z,2.03
2023-09-13T16:39:17.619Z,2.40
2023-09-13T16:41:44.769Z,2.25
2023-09-13T16:44:12.304Z,2.10
2023-09-13T16:46:40.286Z,2.03
2023-09-13T16:49:08.330Z,2.15
2023-09-13T16:51:35.706Z,2.08
2023-09-13T16:54:05.490Z,2.50
2023-09-13T16:56:32.537Z,2.10
2023-09-13T16:58:59.588Z,2.03
2023-09-13T17:01:26.746Z,2.03
2023-09-13T17:03:53.944Z,1.95
2023-09-13T17:06:21.208Z,2.08
2023-09-13T17:08:49.793Z,2.38
2023-09-13T17:11:19.333Z,2.38
2023-09-13T17:13:48.454Z,2.45
2023-09-13T17:16:18.787Z,2.20
2023-09-13T17:18:47.655Z,2.22
2023-09-13T17:21:15.008Z,2.17
2023-09-13T17:23:42.336Z,2.55
2023-09-13T17:26:09.501Z,2.22
2023-09-13T17:28:36.528Z,2.75
2023-09-13T17:31:03.826Z,1.95
2023-09-13T17:33:31.054Z,2.20
2023-09-13T17:35:58.831Z,2.40
2023-09-13T17:38:26.022Z,2.05
2023-09-13T17:40:53.031Z,2.20
2023-09-13T17:43:22.309Z,2.53
2023-09-13T17:45:50.187Z,2.50
2023-09-13T17:48:18.533Z,2.22
2023-09-13T17:50:45.553Z,2.30
2023-09-13T17:53:14.241Z,2.50
2023-09-13T17:55:41.488Z,2.25
2023-09-13T17:58:08.615Z,2.70
2023-09-13T18:00:35.677Z,2.28
2023-09-13T18:03:03.842Z,2.60
2023-09-13T18:05:31.632Z,2.35
2023-09-13T18:07:59.610Z,2.45
2023-09-13T18:10:27.594Z,2.30
2023-09-13T18:12:55.315Z,2.20
2023-09-13T18:15:22.763Z,2.35
2023-09-13T18:17:55.025Z,1.90
2023-09-13T18:20:23.700Z,2.50
2023-09-13T18:22:50.974Z,3.88
2023-09-13T18:25:18.232Z,3.00
2023-09-13T18:27:45.800Z,2.65
2023-09-13T18:30:13.778Z,2.55
2023-09-13T18:32:40.869Z,2.25
2023-09-13T18:35:09.605Z,2.17
2023-09-13T18:37:36.770Z,2.50
2023-09-13T18:40:07.282Z,2.80
2023-09-13T18:42:35.209Z,2.70
2023-09-13T18:45:02.680Z,2.60
2023-09-13T18:47:29.999Z,2.40
2023-09-13T18:49:57.505Z,1.98
2023-09-13T18:52:24.620Z,2.40
2023-09-13T18:54:51.765Z,2.50
2023-09-13T18:57:19.447Z,2.60
2023-09-13T18:59:46.608Z,2.60
2023-09-13T19:02:13.863Z,2.50
2023-09-13T19:04:41.034Z,2.50
2023-09-13T19:07:11.110Z,2.50
2023-09-13T19:09:39.786Z,2.90
2023-09-13T19:12:07.983Z,2.45
2023-09-13T19:14:35.312Z,2.67
2023-09-13T19:17:03.664Z,2.92
2023-09-13T19:19:33.159Z,2.50
2023-09-13T19:22:00.606Z,2.90
2023-09-13T19:24:30.041Z,2.92
2023-09-13T19:27:04.064Z,3.20
2023-09-13T19:29:31.222Z,2.78
2023-09-13T19:31:58.341Z,2.80
2023-09-13T19:34:25.772Z,2.95
2023-09-13T19:36:52.962Z,2.72
2023-09-13T19:39:20.157Z,2.55
2023-09-13T19:41:47.461Z,2.95
2023-09-13T19:44:14.616Z,2.67
2023-09-13T19:46:41.677Z,3.05
2023-09-13T19:49:08.994Z,2.78
2023-09-13T19:51:36.288Z,2.53
2023-09-13T19:54:03.773Z,3.50
2023-09-13T19:56:30.838Z,2.83
2023-09-13T19:58:58.039Z,3.03
2023-09-13T20:01:27.693Z,2.60
2023-09-13T20:03:55.638Z,2.95
2023-09-13T20:06:23.078Z,2.95
2023-09-13T20:08:50.183Z,2.85
2023-09-13T20:11:17.606Z,2.83
2023-09-13T20:13:44.950Z,2.53
2023-09-13T20:16:12.444Z,2.80
2023-09-13T20:18:39.544Z,2.95
2023-09-13T20:21:06.707Z,2.67
2023-09-13T20:23:34.009Z,3.17
2023-09-13T20:26:02.051Z,3.35
2023-09-13T20:28:31.302Z,3.28
2023-09-13T20:31:00.957Z,2.88
2023-09-13T20:33:32.464Z,3.15
2023-09-13T20:36:01.227Z,2.90
2023-09-13T20:38:29.446Z,2.80
2023-09-13T20:40:56.528Z,2.80
2023-09-13T20:43:24.054Z,3.00
2023-09-13T20:45:52.424Z,2.78
2023-09-13T20:48:19.570Z,3.00
2023-09-13T20:50:52.032Z,3.40
2023-09-13T20:53:19.226Z,2.97
2023-09-13T20:55:46.242Z,3.20
2023-09-13T20:58:13.344Z,3.10
2023-09-13T21:00:40.577Z,3.30
2023-09-13T21:03:07.794Z,2.88
2023-09-13T21:05:34.936Z,3.10
2023-09-13T21:08:02.114Z,3.17
2023-09-13T21:10:29.264Z,3.40
2023-09-13T21:12:56.377Z,2.63
2023-09-13T21:15:24.112Z,3.10
2023-09-13T21:17:51.288Z,3.22
2023-09-13T21:20:18.452Z,3.03
2023-09-13T21:22:45.527Z,3.05
2023-09-13T21:25:12.826Z,3.00
2023-09-13T21:27:39.900Z,2.72
2023-09-13T21:30:08.698Z,3.00
2023-09-13T21:32:36.081Z,2.65
2023-09-13T21:35:03.590Z,2.80
2023-09-13T21:37:34.921Z,2.67
2023-09-13T21:40:06.498Z,2.80
2023-09-13T21:42:33.720Z,2.90
2023-09-13T21:45:00.978Z,2.72
2023-09-13T21:47:28.143Z,2.88
2023-09-13T21:49:56.395Z,2.70
2023-09-13T21:52:23.497Z,3.00
2023-09-13T21:54:51.319Z,3.22
2023-09-13T21:57:20.322Z,2.75
2023-09-13T21:59:47.495Z,3.20
2023-09-13T22:02:14.714Z,2.88
2023-09-13T22:04:41.815Z,2.83
2023-09-13T22:07:09.531Z,3.08
2023-09-13T22:09:37.326Z,3.05
2023-09-13T22:12:05.805Z,2.88
2023-09-13T22:14:33.270Z,3.05
2023-09-13T22:17:00.420Z,2.83
2023-09-13T22:19:27.705Z,2.97
2023-09-13T22:21:56.080Z,3.03
2023-09-13T22:24:27.904Z,2.85
2023-09-13T22:26:55.085Z,2.97
2023-09-13T22:29:22.273Z,3.03
2023-09-13T22:31:51.612Z,2.55
2023-09-13T22:34:18.874Z,2.90
2023-09-13T22:36:46.048Z,3.00
2023-09-13T22:39:13.261Z,3.10
2023-09-13T22:41:41.785Z,2.47
2023-09-13T22:44:09.258Z,3.13
2023-09-13T22:46:38.530Z,2.70
2023-09-13T22:49:05.868Z,2.72
2023-09-13T22:51:33.222Z,2.85
2023-09-13T22:54:00.514Z,2.95
2023-09-13T22:56:27.774Z,2.92
2023-09-13T22:58:56.427Z,2.90
2023-09-13T23:01:23.562Z,3.20
2023-09-13T23:03:50.785Z,2.67
2023-09-13T23:06:19.843Z,3.20
2023-09-13T23:08:47.374Z,2.53
2023-09-13T23:11:15.253Z,2.53
2023-09-13T23:13:44.627Z,3.10
2023-09-13T23:16:11.916Z,2.88
2023-09-13T23:18:39.183Z,3.05
2023-09-13T23:21:07.172Z,2.85
2023-09-13T23:23:34.592Z,2.67
2023-09-13T23:26:08.290Z,3.10
2023-09-13T23:28:36.348Z,2.78
2023-09-13T23:31:08.335Z,3.10
2023-09-13T23:33:40.851Z,3.20
2023-09-13T23:36:10.124Z,3.13
2023-09-13T23:38:43.509Z,3.00
2023-09-13T23:41:14.325Z,3.13
2023-09-13T23:43:43.530Z,3.15
2023-09-13T23:46:11.868Z,3.38
2023-09-13T23:48:42.428Z,3.17
2023-09-13T23:51:12.315Z,3.13
2023-09-13T23:53:41.449Z,3.20
2023-09-13T23:56:08.807Z,3.13
2023-09-13T23:58:35.919Z,2.72
